Dyke, Virginia
Current Conditions -  °F | °C
As of 3:53 AM on Monday 20 Oct 2014 (Local Time) from KCHO Reporting Station
Clear Clear  
Wind Chill: 34°   Ceiling: Unl
Heat Index: 38°   Visibility: 10mi
Dew Point: 35°   Wind: 5mph
Humidity: 89%   Direction: 330°NNW
Pressure: 30.09"   Gusts: NA
Location:  38.22°N, 78.54°W
Report Text: KCHO 200753Z AUTO 33004KT 10SM CLR 03/02 A3009 RMK AO2 SLP189 T00330017
Loading
Personal Weather Stations






























Interactive Weather Map
Tropical Storm Tracking
New forecast layout! Learn more

10-Day Weather Forecast

Advertisements
Track Severe Weather on mobile